Terminal Aerodrome Forecast
Issued by NWS

Home | Current Version | Previous Version | Text Only | Print | Product List | Glossary On
Versions: 1 2 3 4 5 6 7 8 9 10 11 12 13
000
FTUS42 TJSJ 312329
TAFJBQ
TAF
TJBQ 312329Z 0100/0124 09013G18KT P6SM FEW020
     FM011400 08016KT P6SM SCT025 SCT070
     FM012300 09008KT P6SM FEW030
      AMD NOT SKED 0102/0111=

USA.gov is the U.S. government's official web portal to all federal, state and local government web resources and services.